sensor_id;sensor_type;location;lat;lon;timestamp;pressure;altitude;pressure_sealevel;temperature;humidity
65359;BME280;52491;45.900;6.346;2023-09-19T00:00:31;93956.72;;;27.87;39.03
65359;BME280;52491;45.900;6.346;2023-09-19T00:02:58;93960.19;;;27.87;39.05
65359;BME280;52491;45.900;6.346;2023-09-19T00:05:27;93965.53;;;27.87;39.26
65359;BME280;52491;45.900;6.346;2023-09-19T00:07:57;93962.88;;;27.87;39.36
65359;BME280;52491;45.900;6.346;2023-09-19T00:10:27;93961.25;;;27.86;39.14
65359;BME280;52491;45.900;6.346;2023-09-19T00:12:57;93957.25;;;27.84;39.46
65359;BME280;52491;45.900;6.346;2023-09-19T00:15:25;93953.78;;;27.83;39.33
65359;BME280;52491;45.900;6.346;2023-09-19T00:17:54;93956.75;;;27.82;39.45
65359;BME280;52491;45.900;6.346;2023-09-19T00:20:19;93957.53;;;27.82;39.32
65359;BME280;52491;45.900;6.346;2023-09-19T00:22:49;93956.38;;;27.59;39.98
65359;BME280;52491;45.900;6.346;2023-09-19T00:25:17;93963.50;;;27.40;40.11
65359;BME280;52491;45.900;6.346;2023-09-19T00:27:43;93967.00;;;27.35;40.35
65359;BME280;52491;45.900;6.346;2023-09-19T00:30:11;93967.31;;;27.34;40.37
65359;BME280;52491;45.900;6.346;2023-09-19T00:32:40;93958.44;;;27.33;40.24
65359;BME280;52491;45.900;6.346;2023-09-19T00:35:06;93960.88;;;27.30;40.40
65359;BME280;52491;45.900;6.346;2023-09-19T00:37:33;93960.88;;;27.30;40.34
65359;BME280;52491;45.900;6.346;2023-09-19T00:39:59;93964.09;;;27.32;40.14
65359;BME280;52491;45.900;6.346;2023-09-19T00:42:25;93964.88;;;27.32;40.23
65359;BME280;52491;45.900;6.346;2023-09-19T00:44:51;93966.47;;;27.33;40.27
65359;BME280;52491;45.900;6.346;2023-09-19T00:47:17;93966.47;;;27.33;40.39
65359;BME280;52491;45.900;6.346;2023-09-19T00:49:46;93962.56;;;27.15;40.40
65359;BME280;52491;45.900;6.346;2023-09-19T00:52:15;93971.69;;;27.14;40.68
65359;BME280;52491;45.900;6.346;2023-09-19T00:54:46;93961.25;;;27.13;40.77
65359;BME280;52491;45.900;6.346;2023-09-19T00:57:12;93951.03;;;27.59;39.80
65359;BME280;52491;45.900;6.346;2023-09-19T00:59:38;93953.91;;;27.68;39.69
65359;BME280;52491;45.900;6.346;2023-09-19T01:02:03;93953.59;;;27.70;39.61
65359;BME280;52491;45.900;6.346;2023-09-19T01:04:29;93951.75;;;27.70;39.75
65359;BME280;52491;45.900;6.346;2023-09-19T01:06:56;93953.34;;;27.71;39.49
65359;BME280;52491;45.900;6.346;2023-09-19T01:09:23;93956.00;;;27.71;39.51
65359;BME280;52491;45.900;6.346;2023-09-19T01:11:51;93949.56;;;27.72;39.48
65359;BME280;52491;45.900;6.346;2023-09-19T01:17:29;93942.63;;;27.71;39.44
65359;BME280;52491;45.900;6.346;2023-09-19T01:20:19;93947.19;;;27.71;39.46
65359;BME280;52491;45.900;6.346;2023-09-19T01:23:05;93951.44;;;27.72;39.27
65359;BME280;52491;45.900;6.346;2023-09-19T01:25:50;93955.72;;;27.73;39.32
65359;BME280;52491;45.900;6.346;2023-09-19T01:28:39;93958.41;;;27.73;39.32
65359;BME280;52491;45.900;6.346;2023-09-19T01:31:12;93954.50;;;27.60;39.70
65359;BME280;52491;45.900;6.346;2023-09-19T01:34:00;93953.19;;;27.57;39.69
65359;BME280;52491;45.900;6.346;2023-09-19T01:36:28;93957.63;;;27.67;39.20
65359;BME280;52491;45.900;6.346;2023-09-19T01:38:57;93962.72;;;27.68;39.66
65359;BME280;52491;45.900;6.346;2023-09-19T01:41:33;93968.34;;;27.67;39.45
65359;BME280;52491;45.900;6.346;2023-09-19T01:44:06;93963.00;;;27.67;39.40
65359;BME280;52491;45.900;6.346;2023-09-19T01:46:39;93963.81;;;27.67;39.31
65359;BME280;52491;45.900;6.346;2023-09-19T01:49:27;93955.50;;;27.69;39.47
65359;BME280;52491;45.900;6.346;2023-09-19T01:52:12;93961.94;;;27.68;39.43
65359;BME280;52491;45.900;6.346;2023-09-19T01:54:52;93955.78;;;27.67;39.48
65359;BME280;52491;45.900;6.346;2023-09-19T01:57:28;93958.97;;;27.70;39.49
65359;BME280;52491;45.900;6.346;2023-09-19T02:00:05;93958.97;;;27.70;39.41
65359;BME280;52491;45.900;6.346;2023-09-19T02:02:36;93950.94;;;27.70;39.22
65359;BME280;52491;45.900;6.346;2023-09-19T02:05:04;93950.44;;;27.67;39.50
65359;BME280;52491;45.900;6.346;2023-09-19T02:07:32;93945.88;;;27.68;39.64
65359;BME280;52491;45.900;6.346;2023-09-19T02:09:58;93949.34;;;27.68;39.92
65359;BME280;52491;45.900;6.346;2023-09-19T02:12:30;93942.88;;;27.70;39.58
65359;BME280;52491;45.900;6.346;2023-09-19T02:14:58;93944.25;;;27.67;39.76
65359;BME280;52491;45.900;6.346;2023-09-19T02:17:24;93945.88;;;27.68;39.77
65359;BME280;52491;45.900;6.346;2023-09-19T02:19:54;93950.94;;;27.70;39.75
65359;BME280;52491;45.900;6.346;2023-09-19T02:22:21;93951.22;;;27.68;39.67
65359;BME280;52491;45.900;6.346;2023-09-19T02:24:48;93953.91;;;27.68;39.71
65359;BME280;52491;45.900;6.346;2023-09-19T02:27:13;93948.00;;;27.66;39.67
65359;BME280;52491;45.900;6.346;2023-09-19T02:29:41;93957.94;;;27.65;39.78
65359;BME280;52491;45.900;6.346;2023-09-19T02:32:07;93963.00;;;27.67;39.95
65359;BME280;52491;45.900;6.346;2023-09-19T02:34:35;93956.34;;;27.64;39.72
65359;BME280;52491;45.900;6.346;2023-09-19T02:37:03;93954.47;;;27.65;39.79
65359;BME280;52491;45.900;6.346;2023-09-19T02:39:30;93953.66;;;27.64;39.68
65359;BME280;52491;45.900;6.346;2023-09-19T02:41:56;93945.34;;;27.66;39.75
65359;BME280;52491;45.900;6.346;2023-09-19T02:44:22;93949.91;;;27.65;39.75
65359;BME280;52491;45.900;6.346;2023-09-19T02:46:49;93956.06;;;27.66;39.59
65359;BME280;52491;45.900;6.346;2023-09-19T02:49:15;93955.25;;;27.65;39.67
65359;BME280;52491;45.900;6.346;2023-09-19T02:51:40;93960.31;;;27.67;39.59
65359;BME280;52491;45.900;6.346;2023-09-19T02:54:07;93963.00;;;27.67;39.62
65359;BME280;52491;45.900;6.346;2023-09-19T02:56:32;93953.91;;;27.68;39.70
65359;BME280;52491;45.900;6.346;2023-09-19T02:58:58;93961.13;;;27.67;39.47
65359;BME280;52491;45.900;6.346;2023-09-19T03:01:26;93957.63;;;27.67;39.73
65359;BME280;52491;45.900;6.346;2023-09-19T03:03:53;93952.28;;;27.67;39.60
65359;BME280;52491;45.900;6.346;2023-09-19T03:06:19;93956.84;;;27.66;39.49
65359;BME280;52491;45.900;6.346;2023-09-19T03:08:45;93952.28;;;27.67;39.55
65359;BME280;52491;45.900;6.346;2023-09-19T03:11:12;93949.59;;;27.67;39.60
65359;BME280;52491;45.900;6.346;2023-09-19T03:13:40;93959.53;;;27.66;39.48
65359;BME280;52491;45.900;6.346;2023-09-19T03:16:08;93954.97;;;27.67;39.81
65359;BME280;52491;45.900;6.346;2023-09-19T03:18:34;93954.16;;;27.66;39.48
65359;BME280;52491;45.900;6.346;2023-09-19T03:21:00;93954.47;;;27.65;39.49
65359;BME280;52491;45.900;6.346;2023-09-19T03:23:27;93953.66;;;27.64;39.50
65359;BME280;52491;45.900;6.346;2023-09-19T03:25:56;93952.84;;;27.64;39.63
65359;BME280;52491;45.900;6.346;2023-09-19T03:28:24;93955.25;;;27.65;39.61
65359;BME280;52491;45.900;6.346;2023-09-19T03:31:03;93955.25;;;27.65;39.49
65359;BME280;52491;45.900;6.346;2023-09-19T03:33:29;93947.50;;;27.64;39.52
65359;BME280;52491;45.900;6.346;2023-09-19T03:35:57;93951.25;;;27.63;39.54
65359;BME280;52491;45.900;6.346;2023-09-19T03:38:25;93950.47;;;27.62;39.42
65359;BME280;52491;45.900;6.346;2023-09-19T03:40:50;93945.91;;;27.63;39.66
65359;BME280;52491;45.900;6.346;2023-09-19T03:43:16;93948.59;;;27.63;39.35
65359;BME280;52491;45.900;6.346;2023-09-19T03:45:42;93957.72;;;27.62;39.39
65359;BME280;52491;45.900;6.346;2023-09-19T03:48:11;93950.47;;;27.62;39.40
65359;BME280;52491;45.900;6.346;2023-09-19T03:50:37;93953.94;;;27.63;39.54
65359;BME280;52491;45.900;6.346;2023-09-19T03:53:03;93947.78;;;27.62;39.25
65359;BME280;52491;45.900;6.346;2023-09-19T03:55:29;93951.53;;;27.61;39.31
65359;BME280;52491;45.900;6.346;2023-09-19T03:57:57;93947.25;;;27.60;39.30
65359;BME280;52491;45.900;6.346;2023-09-19T04:00:23;93949.16;;;27.60;39.37
65359;BME280;52491;45.900;6.346;2023-09-19T04:02:52;93946.47;;;27.60;39.48
65359;BME280;52491;45.900;6.346;2023-09-19T04:05:18;93948.66;;;27.53;39.53
65359;BME280;52491;45.900;6.346;2023-09-19T04:07:44;93948.66;;;27.53;39.55
65359;BME280;52491;45.900;6.346;2023-09-19T04:10:10;93949.47;;;27.53;39.50
65359;BME280;52491;45.900;6.346;2023-09-19T04:12:40;93949.19;;;27.55;39.47
65359;BME280;52491;45.900;6.346;2023-09-19T04:15:06;93948.66;;;27.53;39.55
65359;BME280;52491;45.900;6.346;2023-09-19T04:17:32;93945.97;;;27.53;39.49
65359;BME280;52491;45.900;6.346;2023-09-19T04:19:59;93937.16;;;27.52;39.60
65359;BME280;52491;45.900;6.346;2023-09-19T04:22:25;93944.13;;;27.53;39.58
65359;BME280;52491;45.900;6.346;2023-09-19T04:24:50;93942.81;;;27.51;39.45
65359;BME280;52491;45.900;6.346;2023-09-19T04:27:16;93931.53;;;27.14;40.14
65359;BME280;52491;45.900;6.346;2023-09-19T04:29:42;93931.34;;;27.06;40.35
65359;BME280;52491;45.900;6.346;2023-09-19T04:32:07;93932.94;;;27.01;40.52
65359;BME280;52491;45.900;6.346;2023-09-19T04:34:34;93940.19;;;27.01;40.53
65359;BME280;52491;45.900;6.346;2023-09-19T04:37:00;93935.38;;;26.98;40.65
65359;BME280;52491;45.900;6.346;2023-09-19T04:39:26;93940.41;;;27.10;40.31
65359;BME280;52491;45.900;6.346;2023-09-19T04:41:52;93936.56;;;27.26;40.02
65359;BME280;52491;45.900;6.346;2023-09-19T04:44:18;93942.44;;;27.28;39.85
65359;BME280;52491;45.900;6.346;2023-09-19T04:46:44;93945.63;;;27.30;39.85
65359;BME280;52491;45.900;6.346;2023-09-19T04:49:11;93944.06;;;27.58;39.26
65359;BME280;52491;45.900;6.346;2023-09-19T04:51:38;93953.94;;;27.63;39.18
65359;BME280;52491;45.900;6.346;2023-09-19T04:54:04;93960.63;;;27.65;39.17
65359;BME280;52491;45.900;6.346;2023-09-19T04:56:31;93956.34;;;27.64;39.11
65359;BME280;52491;45.900;6.346;2023-09-19T04:58:58;93966.50;;;27.67;39.20
65359;BME280;52491;45.900;6.346;2023-09-19T05:01:24;93962.19;;;27.66;39.21
65359;BME280;52491;45.900;6.346;2023-09-19T05:03:50;93964.63;;;27.68;39.00
65359;BME280;52491;45.900;6.346;2023-09-19T05:06:21;93958.47;;;27.67;39.22
65359;BME280;52491;45.900;6.346;2023-09-19T05:08:48;93968.34;;;27.67;39.01
65359;BME280;52491;45.900;6.346;2023-09-19T05:11:17;93966.50;;;27.67;39.01
65359;BME280;52491;45.900;6.346;2023-09-19T05:13:43;93970.75;;;27.68;39.05
65359;BME280;52491;45.900;6.346;2023-09-19T05:16:09;93966.75;;;27.66;39.01
65359;BME280;52491;45.900;6.346;2023-09-19T05:18:35;93968.91;;;27.64;38.91
65359;BME280;52491;45.900;6.346;2023-09-19T05:21:04;93972.69;;;27.63;38.80
65359;BME280;52491;45.900;6.346;2023-09-19T05:23:30;93971.38;;;27.60;38.82
65359;BME280;52491;45.900;6.346;2023-09-19T05:25:56;93978.59;;;27.60;38.65
65359;BME280;52491;45.900;6.346;2023-09-19T05:28:25;93979.69;;;27.59;38.65
65359;BME280;52491;45.900;6.346;2023-09-19T05:30:50;93980.75;;;27.58;38.63
65359;BME280;52491;45.900;6.346;2023-09-19T05:33:16;93981.84;;;27.57;38.88
65359;BME280;52491;45.900;6.346;2023-09-19T05:35:43;93985.31;;;27.57;38.55
65359;BME280;52491;45.900;6.346;2023-09-19T05:38:09;93986.91;;;27.58;38.65
65359;BME280;52491;45.900;6.346;2023-09-19T05:40:35;93983.97;;;27.60;38.41
65359;BME280;52491;45.900;6.346;2023-09-19T05:43:01;93985.56;;;27.61;38.82
65359;BME280;52491;45.900;6.346;2023-09-19T05:45:29;93989.31;;;27.60;38.81
65359;BME280;52491;45.900;6.346;2023-09-19T05:47:54;93993.09;;;27.59;38.81
65359;BME280;52491;45.900;6.346;2023-09-19T05:50:29;93988.78;;;27.58;38.94
65359;BME280;52491;45.900;6.346;2023-09-19T05:52:55;93989.59;;;27.58;38.75
65359;BME280;52491;45.900;6.346;2023-09-19T05:55:21;93992.25;;;27.58;38.99
65359;BME280;52491;45.900;6.346;2023-09-19T05:57:53;93991.22;;;27.59;38.88
65359;BME280;52491;45.900;6.346;2023-09-19T06:00:20;93998.44;;;27.59;38.68
65359;BME280;52491;45.900;6.346;2023-09-19T06:05:18;94004.06;;;27.57;38.89
65359;BME280;52491;45.900;6.346;2023-09-19T06:07:43;94017.19;;;27.59;38.75
65359;BME280;52491;45.900;6.346;2023-09-19T06:10:09;94013.97;;;27.57;38.78
65359;BME280;52491;45.900;6.346;2023-09-19T06:12:42;94017.19;;;27.59;38.92
65359;BME280;52491;45.900;6.346;2023-09-19T06:15:12;94013.97;;;27.57;38.82
65359;BME280;52491;45.900;6.346;2023-09-19T06:17:54;94014.50;;;27.59;38.90
65359;BME280;52491;45.900;6.346;2023-09-19T06:20:25;94016.94;;;27.55;38.75
65359;BME280;52491;45.900;6.346;2023-09-19T06:22:52;94010.22;;;27.58;38.80
65359;BME280;52491;45.900;6.346;2023-09-19T06:25:19;94012.91;;;27.58;38.65
65359;BME280;52491;45.900;6.346;2023-09-19T06:27:48;94017.47;;;27.57;38.78
65359;BME280;52491;45.900;6.346;2023-09-19T06:30:14;94012.09;;;27.57;38.80
65359;BME280;52491;45.900;6.346;2023-09-19T06:32:40;94012.63;;;27.59;38.76
65359;BME280;52491;45.900;6.346;2023-09-19T06:35:13;94009.94;;;27.59;38.70
65359;BME280;52491;45.900;6.346;2023-09-19T06:37:40;94019.88;;;27.59;38.85
65359;BME280;52491;45.900;6.346;2023-09-19T06:40:12;94020.94;;;27.58;39.03
65359;BME280;52491;45.900;6.346;2023-09-19T06:42:46;94023.59;;;27.58;38.82
65359;BME280;52491;45.900;6.346;2023-09-19T06:45:14;94031.66;;;27.58;38.77
65359;BME280;52491;45.900;6.346;2023-09-19T06:47:47;94033.25;;;27.59;38.96
65359;BME280;52491;45.900;6.346;2023-09-19T06:50:20;94030.84;;;27.57;38.89
65359;BME280;52491;45.900;6.346;2023-09-19T06:52:48;94024.41;;;27.58;38.83
65359;BME280;52491;45.900;6.346;2023-09-19T06:55:16;94036.72;;;27.59;38.70
65359;BME280;52491;45.900;6.346;2023-09-19T06:57:42;94034.84;;;27.60;38.71
65359;BME280;52491;45.900;6.346;2023-09-19T07:00:09;94026.81;;;27.60;38.88
65359;BME280;52491;45.900;6.346;2023-09-19T07:02:54;94037.22;;;27.61;38.86
65359;BME280;52491;45.900;6.346;2023-09-19T07:05:20;94026.28;;;27.58;38.81
65359;BME280;52491;45.900;6.346;2023-09-19T07:07:47;94028.97;;;27.58;38.81
65359;BME280;52491;45.900;6.346;2023-09-19T07:10:12;94031.94;;;27.56;38.84
65359;BME280;52491;45.900;6.346;2023-09-19T07:12:38;94033.53;;;27.57;38.83
65359;BME280;52491;45.900;6.346;2023-09-19T07:15:05;94028.97;;;27.58;38.86
65359;BME280;52491;45.900;6.346;2023-09-19T07:17:31;94032.72;;;27.57;38.85
65359;BME280;52491;45.900;6.346;2023-09-19T07:19:58;94027.38;;;27.57;38.81
65359;BME280;52491;45.900;6.346;2023-09-19T07:22:25;94031.66;;;27.58;38.82
65359;BME280;52491;45.900;6.346;2023-09-19T07:24:51;94030.59;;;27.59;38.85
65359;BME280;52491;45.900;6.346;2023-09-19T07:27:17;94028.97;;;27.58;38.93
65359;BME280;52491;45.900;6.346;2023-09-19T07:29:42;94028.69;;;27.59;38.74
65359;BME280;52491;45.900;6.346;2023-09-19T07:32:08;94024.13;;;27.60;38.80
65359;BME280;52491;45.900;6.346;2023-09-19T07:34:35;94031.38;;;27.59;38.86
65359;BME280;52491;45.900;6.346;2023-09-19T07:37:01;94025.22;;;27.59;38.74
65359;BME280;52491;45.900;6.346;2023-09-19T07:39:27;94030.28;;;27.60;38.95
65359;BME280;52491;45.900;6.346;2023-09-19T07:41:53;94024.13;;;27.60;38.92
65359;BME280;52491;45.900;6.346;2023-09-19T07:44:19;94022.25;;;27.60;38.82
65359;BME280;52491;45.900;6.346;2023-09-19T07:46:45;94023.03;;;27.61;38.74
65359;BME280;52491;45.900;6.346;2023-09-19T07:49:11;94019.56;;;27.60;38.77
65359;BME280;52491;45.900;6.346;2023-09-19T07:51:36;94024.66;;;27.62;38.67
65359;BME280;52491;45.900;6.346;2023-09-19T07:54:02;94022.00;;;27.62;38.80
65359;BME280;52491;45.900;6.346;2023-09-19T07:56:28;94031.88;;;27.61;38.81
65359;BME280;52491;45.900;6.346;2023-09-19T07:58:54;94030.03;;;27.62;39.28
65359;BME280;52491;45.900;6.346;2023-09-19T08:01:20;94031.63;;;27.63;38.74
65359;BME280;52491;45.900;6.346;2023-09-19T08:03:49;94035.38;;;27.62;38.79
65359;BME280;52491;45.900;6.346;2023-09-19T08:06:14;94030.81;;;27.62;38.89
65359;BME280;52491;45.900;6.346;2023-09-19T08:08:40;94040.72;;;27.62;38.81
65359;BME280;52491;45.900;6.346;2023-09-19T08:11:06;94040.72;;;27.62;39.11
65359;BME280;52491;45.900;6.346;2023-09-19T08:13:39;94036.19;;;27.62;38.76
65359;BME280;52491;45.900;6.346;2023-09-19T08:16:11;94031.88;;;27.61;38.96
65359;BME280;52491;45.900;6.346;2023-09-19T08:18:37;94034.56;;;27.61;38.91
65359;BME280;52491;45.900;6.346;2023-09-19T08:21:06;94041.53;;;27.62;38.64
65359;BME280;52491;45.900;6.346;2023-09-19T08:23:39;94049.28;;;27.64;38.89
65359;BME280;52491;45.900;6.346;2023-09-19T08:26:05;94045.00;;;27.63;38.70
65359;BME280;52491;45.900;6.346;2023-09-19T08:28:34;94042.31;;;27.63;38.63
65359;BME280;52491;45.900;6.346;2023-09-19T08:31:04;94035.09;;;27.63;38.78
65359;BME280;52491;45.900;6.346;2023-09-19T08:33:34;94049.00;;;27.65;38.73
65359;BME280;52491;45.900;6.346;2023-09-19T08:36:01;94047.50;;;27.49;38.90
65359;BME280;52491;45.900;6.346;2023-09-19T08:38:31;94039.03;;;27.37;39.13
65359;BME280;52491;45.900;6.346;2023-09-19T08:40:59;94041.81;;;27.56;38.91
65359;BME280;52491;45.900;6.346;2023-09-19T08:43:27;94048.78;;;27.62;38.74
65359;BME280;52491;45.900;6.346;2023-09-19T08:45:59;94049.53;;;27.67;38.72
65359;BME280;52491;45.900;6.346;2023-09-19T08:48:29;94050.34;;;27.68;38.60
65359;BME280;52491;45.900;6.346;2023-09-19T08:51:00;94050.84;;;27.70;38.59
65359;BME280;52491;45.900;6.346;2023-09-19T08:53:31;94044.41;;;27.71;38.72
65359;BME280;52491;45.900;6.346;2023-09-19T08:56:00;94048.97;;;27.71;38.64
65359;BME280;52491;45.900;6.346;2023-09-19T08:58:31;94047.88;;;27.72;38.70
65359;BME280;52491;45.900;6.346;2023-09-19T09:01:00;94047.34;;;27.70;38.64
65359;BME280;52491;45.900;6.346;2023-09-19T09:03:29;94041.72;;;27.71;38.59
65359;BME280;52491;45.900;6.346;2023-09-19T09:05:57;94050.03;;;27.70;38.72
65359;BME280;52491;45.900;6.346;2023-09-19T09:08:24;94051.13;;;27.68;38.78
65359;BME280;52491;45.900;6.346;2023-09-19T09:10:50;94049.53;;;27.67;38.92
65359;BME280;52491;45.900;6.346;2023-09-19T09:13:17;94044.69;;;27.70;38.75
65359;BME280;52491;45.900;6.346;2023-09-19T09:15:43;94036.63;;;27.70;38.76
65359;BME280;52491;45.900;6.346;2023-09-19T09:18:10;94037.47;;;27.70;38.61
65359;BME280;52491;45.900;6.346;2023-09-19T09:20:35;94036.63;;;27.70;38.81
65359;BME280;52491;45.900;6.346;2023-09-19T09:23:01;94032.91;;;27.71;38.83
65359;BME280;52491;45.900;6.346;2023-09-19T09:25:51;94037.97;;;27.72;38.67
65359;BME280;52491;45.900;6.346;2023-09-19T09:28:22;94036.38;;;27.71;38.88
65359;BME280;52491;45.900;6.346;2023-09-19T09:30:48;94033.69;;;27.71;38.81
65359;BME280;52491;45.900;6.346;2023-09-19T09:33:14;94032.59;;;27.72;38.82
65359;BME280;52491;45.900;6.346;2023-09-19T09:35:58;94035.28;;;27.72;38.92
65359;BME280;52491;45.900;6.346;2023-09-19T09:38:29;94033.69;;;27.71;38.89
65359;BME280;52491;45.900;6.346;2023-09-19T09:40:59;94036.38;;;27.71;38.77
65359;BME280;52491;45.900;6.346;2023-09-19T09:43:36;94036.91;;;27.73;38.85
65359;BME280;52491;45.900;6.346;2023-09-19T09:46:14;94028.88;;;27.73;38.81
65359;BME280;52491;45.900;6.346;2023-09-19T09:48:46;94033.41;;;27.73;38.71
65359;BME280;52491;45.900;6.346;2023-09-19T09:51:32;94034.22;;;27.73;38.92
65359;BME280;52491;45.900;6.346;2023-09-19T09:54:15;94033.66;;;27.76;38.65
65359;BME280;52491;45.900;6.346;2023-09-19T09:56:58;94034.72;;;27.75;38.82
65359;BME280;52491;45.900;6.346;2023-09-19T09:59:53;94032.03;;;27.75;38.75
65359;BME280;52491;45.900;6.346;2023-09-19T10:02:30;94021.63;;;27.74;39.01
65359;BME280;52491;45.900;6.346;2023-09-19T10:05:19;94014.38;;;27.74;38.90
65359;BME280;52491;45.900;6.346;2023-09-19T10:07:48;94015.47;;;27.73;38.55
65359;BME280;52491;45.900;6.346;2023-09-19T10:10:37;94026.19;;;27.73;38.90
65359;BME280;52491;45.900;6.346;2023-09-19T10:13:13;94020.84;;;27.73;38.92
65359;BME280;52491;45.900;6.346;2023-09-19T10:15:42;94020.53;;;27.75;39.00
65359;BME280;52491;45.900;6.346;2023-09-19T10:18:15;94018.66;;;27.75;38.92
65359;BME280;52491;45.900;6.346;2023-09-19T10:20:45;94019.19;;;27.77;38.73
65359;BME280;52491;45.900;6.346;2023-09-19T10:23:12;94021.84;;;27.77;38.88
65359;BME280;52491;45.900;6.346;2023-09-19T10:25:42;94012.50;;;27.80;38.99
65359;BME280;52491;45.900;6.346;2023-09-19T10:28:10;94013.00;;;27.82;38.88
65359;BME280;52491;45.900;6.346;2023-09-19T10:30:47;94018.06;;;27.83;39.08
65359;BME280;52491;45.900;6.346;2023-09-19T10:33:17;94010.03;;;27.83;38.83
65359;BME280;52491;45.900;6.346;2023-09-19T10:35:47;94008.16;;;27.84;39.01
65359;BME280;52491;45.900;6.346;2023-09-19T10:38:15;94011.13;;;27.82;38.72
65359;BME280;52491;45.900;6.346;2023-09-19T10:40:44;94016.75;;;27.81;38.90
65359;BME280;52491;45.900;6.346;2023-09-19T10:43:16;94009.81;;;27.80;39.31
65359;BME280;52491;45.900;6.346;2023-09-19T10:45:48;94007.38;;;27.78;39.32
65359;BME280;52491;45.900;6.346;2023-09-19T10:48:20;93994.28;;;27.77;39.29
65359;BME280;52491;45.900;6.346;2023-09-19T10:51:01;94001.22;;;27.78;39.38
65359;BME280;52491;45.900;6.346;2023-09-19T10:53:48;93996.41;;;27.80;39.39
65359;BME280;52491;45.900;6.346;2023-09-19T10:56:22;93999.88;;;27.80;39.32
65359;BME280;52491;45.900;6.346;2023-09-19T10:58:48;93998.81;;;27.81;39.35
65359;BME280;52491;45.900;6.346;2023-09-19T11:01:14;93988.59;;;27.83;39.09
65359;BME280;52491;45.900;6.346;2023-09-19T11:03:44;93990.50;;;27.83;39.37
65359;BME280;52491;45.900;6.346;2023-09-19T11:09:04;93984.56;;;27.86;39.21
65359;BME280;52491;45.900;6.346;2023-09-19T11:11:50;93982.75;;;27.81;39.13
65359;BME280;52491;45.900;6.346;2023-09-19T11:30:52;93956.47;;;27.83;39.01
65359;BME280;52491;45.900;6.346;2023-09-19T11:33:31;93954.03;;;27.87;38.86
65359;BME280;52491;45.900;6.346;2023-09-19T11:46:54;93952.34;;;27.62;39.75
65359;BME280;52491;45.900;6.346;2023-09-19T11:49:28;93948.84;;;27.61;39.45
65359;BME280;52491;45.900;6.346;2023-09-19T11:51:55;93955.03;;;27.62;39.49
65359;BME280;52491;45.900;6.346;2023-09-19T11:54:21;93952.34;;;27.62;39.63
65359;BME280;52491;45.900;6.346;2023-09-19T11:56:51;93953.16;;;27.62;39.52
65359;BME280;52491;45.900;6.346;2023-09-19T11:59:23;93943.22;;;27.63;39.62
65359;BME280;52491;45.900;6.346;2023-09-19T12:01:53;93944.53;;;27.65;39.45
65359;BME280;52491;45.900;6.346;2023-09-19T12:07:08;93937.47;;;27.80;39.39
65359;BME280;52491;45.900;6.346;2023-09-19T12:09:42;93934.41;;;27.92;38.95
65359;BME280;52491;45.900;6.346;2023-09-19T12:12:30;93933.84;;;27.95;38.75
65359;BME280;52491;45.900;6.346;2023-09-19T12:14:56;93940.03;;;27.95;38.68
65359;BME280;52491;45.900;6.346;2023-09-19T12:17:37;93929.22;;;28.00;38.71
65359;BME280;52491;45.900;6.346;2023-09-19T12:20:04;93927.63;;;27.99;38.59
65359;BME280;52491;45.900;6.346;2023-09-19T12:22:44;93926.31;;;27.97;38.85
65359;BME280;52491;45.900;6.346;2023-09-19T12:25:10;93936.19;;;28.01;38.75
65359;BME280;52491;45.900;6.346;2023-09-19T12:27:47;93931.63;;;28.02;38.66
65359;BME280;52491;45.900;6.346;2023-09-19T12:30:15;93936.47;;;28.00;38.80
65359;BME280;52491;45.900;6.346;2023-09-19T12:32:43;93933.00;;;27.99;38.78
65359;BME280;52491;45.900;6.346;2023-09-19T12:35:09;93933.78;;;28.00;38.55
65359;BME280;52491;45.900;6.346;2023-09-19T12:37:51;93933.22;;;28.03;38.60
65359;BME280;52491;45.900;6.346;2023-09-19T12:40:21;93927.06;;;28.02;38.38
65359;BME280;52491;45.900;6.346;2023-09-19T12:42:52;93929.75;;;28.02;38.63
65359;BME280;52491;45.900;6.346;2023-09-19T12:45:19;93935.91;;;28.03;38.59
65359;BME280;52491;45.900;6.346;2023-09-19T12:48:21;93934.25;;;28.07;38.43
65359;BME280;52491;45.900;6.346;2023-09-19T12:51:14;93932.38;;;28.07;38.39
65359;BME280;52491;45.900;6.346;2023-09-19T12:53:43;93937.22;;;28.05;38.49
65359;BME280;52491;45.900;6.346;2023-09-19T12:56:15;93932.38;;;28.07;38.33
65359;BME280;52491;45.900;6.346;2023-09-19T12:58:58;93929.41;;;28.09;38.46
65359;BME280;52491;45.900;6.346;2023-09-19T13:01:27;93920.28;;;28.10;38.25
65359;BME280;52491;45.900;6.346;2023-09-19T13:06:45;93917.88;;;28.08;38.26
65359;BME280;52491;45.900;6.346;2023-09-19T13:09:14;93927.25;;;28.11;38.52
65359;BME280;52491;45.900;6.346;2023-09-19T13:11:41;93916.25;;;28.13;38.50
65359;BME280;52491;45.900;6.346;2023-09-19T13:14:18;93911.69;;;28.13;38.35
65359;BME280;52491;45.900;6.346;2023-09-19T13:19:51;93913.78;;;28.16;38.47
65359;BME280;52491;45.900;6.346;2023-09-19T13:22:41;93906.75;;;28.20;38.37
65359;BME280;52491;45.900;6.346;2023-09-19T13:27:53;93905.97;;;28.20;38.29
65359;BME280;52491;45.900;6.346;2023-09-19T13:30:23;93899.81;;;28.19;38.05
65359;BME280;52491;45.900;6.346;2023-09-19T13:32:50;93910.53;;;28.19;38.11
65359;BME280;52491;45.900;6.346;2023-09-19T13:35:17;93893.66;;;28.19;38.31
65359;BME280;52491;45.900;6.346;2023-09-19T13:37:43;93900.59;;;28.20;37.97
65359;BME280;52491;45.900;6.346;2023-09-19T13:40:14;93895.53;;;28.18;38.20
65359;BME280;52491;45.900;6.346;2023-09-19T13:42:40;93892.88;;;28.18;38.09
65359;BME280;52491;45.900;6.346;2023-09-19T13:45:07;93892.88;;;28.18;38.15
65359;BME280;52491;45.900;6.346;2023-09-19T13:47:33;93888.28;;;28.19;37.83
65359;BME280;52491;45.900;6.346;2023-09-19T13:50:01;93885.31;;;28.20;38.15
65359;BME280;52491;45.900;6.346;2023-09-19T13:52:29;93886.94;;;28.21;38.20
65359;BME280;52491;45.900;6.346;2023-09-19T13:54:56;93890.41;;;28.22;38.13
65359;BME280;52491;45.900;6.346;2023-09-19T13:57:25;93887.44;;;28.23;38.09
65359;BME280;52491;45.900;6.346;2023-09-19T13:59:52;93887.44;;;28.23;37.77